Time;durP1;ratioP1;P1;durP2;ratioP2;P2;SDS_P1;SDS_P2;PMS_P1;PMS_P2;Temp;Humidity;BMP_temperature;BMP_pressure;BME280_temperature;BME280_humidity;BME280_pressure;Samples;Min_cycle;Max_cycle;Signal;HPM_P1;HPM_P2
2023/01/11 00:01:07;;;;;;;1.60;1.20;;;8.60;98.20;;;;;;5002753;28;20479;-74
2023/01/11 00:03:35;;;;;;;1.60;1.20;;;8.70;98.20;;;;;;5021462;28;20459;-74
2023/01/11 00:06:03;;;;;;;1.60;1.20;;;8.70;98.20;;;;;;5002503;28;20483;-73
2023/01/11 00:08:30;;;;;;;1.60;1.20;;;8.70;98.20;;;;;;5023271;28;20541;-74
2023/01/11 00:10:57;;;;;;;1.60;1.30;;;8.70;98.20;;;;;;5002609;28;20559;-73
2023/01/11 00:13:24;;;;;;;1.60;1.30;;;8.70;98.20;;;;;;5024131;28;20835;-73
2023/01/11 00:15:52;;;;;;;1.63;1.30;;;8.70;98.20;;;;;;5001010;28;20492;-73
2023/01/11 00:18:18;;;;;;;1.63;1.30;;;8.70;98.20;;;;;;5019354;28;20552;-74
2023/01/11 00:20:46;;;;;;;1.60;1.20;;;8.80;98.20;;;;;;5010781;28;21007;-74
2023/01/11 00:23:13;;;;;;;1.60;1.20;;;8.80;98.20;;;;;;4999785;28;20480;-74
2023/01/11 00:25:40;;;;;;;1.60;1.10;;;8.80;98.20;;;;;;5012364;28;20586;-74
2023/01/11 00:28:07;;;;;;;1.60;1.10;;;8.80;98.20;;;;;;5013892;28;20522;-73
2023/01/11 00:30:35;;;;;;;1.60;1.20;;;8.80;98.20;;;;;;5009954;28;20456;-74
2023/01/11 00:33:03;;;;;;;1.60;1.20;;;8.80;98.20;;;;;;5014464;28;20482;-73
2023/01/11 00:35:31;;;;;;;1.60;1.30;;;8.80;98.20;;;;;;5010575;28;20502;-74
2023/01/11 00:37:58;;;;;;;1.60;1.23;;;8.80;98.20;;;;;;5012739;28;20989;-73
2023/01/11 00:40:26;;;;;;;1.60;1.17;;;8.80;98.20;;;;;;5011756;28;20823;-74
2023/01/11 00:48:23;;;;;;;1.63;1.20;;;8.80;98.20;;;;;;4993555;28;20907;-74
2023/01/11 00:50:53;;;;;;;1.60;1.13;;;8.90;98.20;;;;;;5000919;28;20471;-74
2023/01/11 00:53:20;;;;;;;1.60;1.20;;;8.90;98.20;;;;;;5017285;28;21072;-74
2023/01/11 00:55:47;;;;;;;1.60;1.20;;;8.90;98.20;;;;;;5004032;28;20490;-74
2023/01/11 00:58:14;;;;;;;1.60;1.10;;;9.00;98.20;;;;;;5023592;28;20468;-74
2023/01/11 01:00:41;;;;;;;1.60;1.20;;;9.00;98.20;;;;;;5009642;28;20464;-74
2023/01/11 01:03:09;;;;;;;1.60;1.20;;;9.00;98.20;;;;;;5011948;28;20571;-74
2023/01/11 01:05:39;;;;;;;1.63;1.30;;;9.00;98.20;;;;;;5010492;28;20563;-74
2023/01/11 01:08:06;;;;;;;1.60;1.30;;;9.10;98.20;;;;;;5013835;28;20574;-74
2023/01/11 01:10:33;;;;;;;1.60;1.20;;;9.10;98.20;;;;;;5010347;28;20468;-73
2023/01/11 01:15:44;;;;;;;1.60;1.20;;;9.10;98.20;;;;;;5010231;28;20491;-74
2023/01/11 01:18:10;;;;;;;1.60;1.30;;;9.10;98.20;;;;;;4994227;28;20495;-73
2023/01/11 01:20:39;;;;;;;1.60;1.20;;;9.10;98.20;;;;;;5009773;28;20853;-73
2023/01/11 01:23:06;;;;;;;1.60;1.20;;;9.20;98.20;;;;;;5013539;28;20487;-74
2023/01/11 01:25:33;;;;;;;1.60;1.10;;;9.20;98.20;;;;;;5009934;28;20487;-74
2023/01/11 01:28:00;;;;;;;1.60;1.10;;;9.20;98.20;;;;;;5011540;28;20483;-74
2023/01/11 01:30:26;;;;;;;1.60;1.10;;;9.20;98.20;;;;;;5009530;28;20500;-73
2023/01/11 01:32:53;;;;;;;1.70;1.30;;;9.20;98.20;;;;;;5013729;28;20483;-74
2023/01/11 01:35:20;;;;;;;1.63;1.30;;;9.30;98.20;;;;;;5010194;28;20492;-74
2023/01/11 01:37:48;;;;;;;1.60;1.20;;;9.30;98.20;;;;;;5011787;28;20478;-74
2023/01/11 01:40:15;;;;;;;1.60;1.23;;;9.30;98.20;;;;;;5010151;28;20464;-73
2023/01/11 01:42:42;;;;;;;1.60;1.20;;;9.30;98.20;;;;;;5014773;28;20529;-73
2023/01/11 01:45:19;;;;;;;1.60;1.20;;;9.40;98.20;;;;;;5009808;28;20555;-73
2023/01/11 01:47:48;;;;;;;1.60;1.20;;;9.40;98.20;;;;;;5012381;28;20486;-73
2023/01/11 01:50:19;;;;;;;1.60;1.20;;;9.50;98.20;;;;;;5009673;28;20460;-73
2023/01/11 01:52:51;;;;;;;1.60;1.20;;;9.50;98.20;;;;;;5013111;28;20475;-73
2023/01/11 01:55:24;;;;;;;1.60;1.20;;;9.60;98.20;;;;;;5009204;28;20491;-73
2023/01/11 01:57:53;;;;;;;1.60;1.20;;;9.70;98.20;;;;;;5012413;28;20487;-74
2023/01/11 02:00:20;;;;;;;1.60;1.10;;;9.80;98.20;;;;;;5003598;28;20693;-74
2023/01/11 02:02:49;;;;;;;1.60;1.17;;;9.80;98.20;;;;;;5012792;28;20497;-74
2023/01/11 02:05:17;;;;;;;1.70;1.27;;;9.80;98.20;;;;;;5009592;28;20476;-74
2023/01/11 02:07:46;;;;;;;1.60;1.20;;;9.80;98.20;;;;;;5011254;28;20560;-73
2023/01/11 02:10:16;;;;;;;1.60;1.20;;;9.80;98.20;;;;;;5008987;28;20959;-73
2023/01/11 02:12:49;;;;;;;1.60;1.10;;;9.80;98.20;;;;;;5011902;28;20503;-73
2023/01/11 02:15:18;;;;;;;1.60;1.10;;;9.80;98.20;;;;;;5003719;28;21152;-73
2023/01/11 02:17:45;;;;;;;1.60;1.20;;;9.80;98.20;;;;;;5009956;28;20487;-74
2023/01/11 02:20:33;;;;;;;1.60;1.10;;;9.80;98.20;;;;;;5009465;28;20472;-73
2023/01/11 02:23:46;;;;;;;1.60;1.17;;;9.80;98.20;;;;;;5012135;28;20471;-74
2023/01/11 02:26:46;;;;;;;1.63;1.20;;;9.80;98.20;;;;;;4963785;28;20481;-73
2023/01/11 02:29:27;;;;;;;1.60;1.10;;;9.80;98.20;;;;;;5006816;28;20460;-75
2023/01/11 02:32:05;;;;;;;1.60;1.20;;;9.70;98.20;;;;;;5001837;28;20487;-75
2023/01/11 02:34:40;;;;;;;1.60;1.10;;;9.70;98.20;;;;;;5010228;28;20484;-75
2023/01/11 02:37:30;;;;;;;1.60;1.20;;;9.70;98.20;;;;;;5006018;28;20564;-76
2023/01/11 02:40:07;;;;;;;1.60;1.20;;;9.60;98.20;;;;;;5010464;28;20467;-77
2023/01/11 02:45:37;;;;;;;1.60;1.20;;;9.60;98.20;;;;;;5002891;28;20467;-76
2023/01/11 02:48:14;;;;;;;1.60;1.20;;;9.60;98.20;;;;;;5010891;28;20483;-75
2023/01/11 02:50:46;;;;;;;1.60;1.10;;;9.60;98.20;;;;;;5008174;28;20463;-76
2023/01/11 02:53:21;;;;;;;1.60;1.10;;;9.60;98.20;;;;;;4996587;28;20464;-76
2023/01/11 02:58:27;;;;;;;1.60;1.10;;;9.60;98.20;;;;;;4978085;28;20552;-89
2023/01/11 03:00:57;;;;;;;1.60;1.20;;;9.70;98.20;;;;;;4974049;28;20834;-91
2023/01/11 03:03:26;;;;;;;1.60;1.20;;;9.70;98.20;;;;;;5007494;28;20546;-89
2023/01/11 03:05:56;;;;;;;1.60;1.20;;;9.70;98.20;;;;;;5004511;28;20476;-92
2023/01/11 03:08:45;;;;;;;1.60;1.20;;;9.80;98.20;;;;;;5001340;28;20453;-91
2023/01/11 03:12:50;;;;;;;1.60;1.20;;;9.80;98.20;;;;;;4977594;28;20477;-91
2023/01/11 03:14:10;;;;;;;1.60;1.20;;;9.90;98.20;;;;;;4991306;28;20520;-90
2023/01/11 03:16:44;;;;;;;1.60;1.10;;;9.90;98.20;;;;;;4990066;28;21086;-91
2023/01/11 03:19:25;;;;;;;1.60;1.20;;;9.90;98.20;;;;;;4979505;28;20453;-92
2023/01/11 03:21:59;;;;;;;1.60;1.20;;;9.90;98.20;;;;;;4981469;28;20477;-91
2023/01/11 03:24:32;;;;;;;1.60;1.10;;;10.00;98.20;;;;;;4992588;28;20935;-90
2023/01/11 03:27:10;;;;;;;1.60;1.20;;;9.90;98.20;;;;;;4981782;28;20536;-93
2023/01/11 03:29:44;;;;;;;1.60;1.10;;;9.90;98.20;;;;;;4988504;28;20551;-91
2023/01/11 03:32:25;;;;;;;1.60;1.10;;;9.90;98.20;;;;;;4970431;28;20487;-90
2023/01/11 03:35:02;;;;;;;1.63;1.20;;;9.90;98.20;;;;;;4987950;28;20477;-93
2023/01/11 03:37:33;;;;;;;1.60;1.30;;;9.90;98.20;;;;;;4975909;28;20481;-92
2023/01/11 03:40:04;;;;;;;1.60;1.20;;;9.90;98.20;;;;;;4993600;28;20468;-92
2023/01/11 03:42:33;;;;;;;1.60;1.20;;;9.90;98.20;;;;;;4976888;28;21189;-92
2023/01/11 03:45:02;;;;;;;1.60;1.20;;;9.90;98.20;;;;;;4986146;28;20478;-93
2023/01/11 03:47:31;;;;;;;1.60;1.17;;;9.90;98.20;;;;;;4982284;28;20494;-92
2023/01/11 03:50:02;;;;;;;1.60;1.10;;;9.90;98.20;;;;;;4987345;28;20497;-92
2023/01/11 03:52:32;;;;;;;1.60;1.10;;;9.90;98.20;;;;;;4977707;28;20504;-93
2023/01/11 03:55:01;;;;;;;1.60;1.20;;;9.90;98.20;;;;;;4987856;28;20504;-90
2023/01/11 03:57:33;;;;;;;1.60;1.10;;;9.90;98.20;;;;;;4976699;28;20491;-92
2023/01/11 04:00:00;;;;;;;1.60;1.10;;;9.90;98.20;;;;;;4987412;28;20473;-92
2023/01/11 04:02:33;;;;;;;1.60;1.10;;;9.90;98.20;;;;;;4977116;28;20871;-92
2023/01/11 04:05:01;;;;;;;1.60;1.13;;;9.90;98.20;;;;;;4989467;28;20456;-93
2023/01/11 04:07:29;;;;;;;1.60;1.20;;;9.90;98.20;;;;;;4977053;28;21125;-92
2023/01/11 04:09:57;;;;;;;1.60;1.10;;;9.90;98.20;;;;;;4987745;28;20468;-92
2023/01/11 04:12:27;;;;;;;1.60;1.17;;;9.90;98.20;;;;;;4977019;28;20511;-92
2023/01/11 04:14:54;;;;;;;1.60;1.10;;;9.90;98.20;;;;;;4984022;28;20493;-92
2023/01/11 04:17:20;;;;;;;1.60;1.20;;;9.90;98.20;;;;;;4982715;28;20481;-92
2023/01/11 04:19:47;;;;;;;1.60;1.10;;;9.90;98.20;;;;;;4987884;28;20464;-92
2023/01/11 04:22:15;;;;;;;1.60;1.10;;;9.90;98.20;;;;;;4996222;28;20476;-90
2023/01/11 04:24:42;;;;;;;1.60;1.20;;;10.00;98.20;;;;;;5004799;28;20550;-93
2023/01/11 04:27:09;;;;;;;1.60;1.10;;;10.00;98.20;;;;;;4975954;28;20484;-90
2023/01/11 04:29:35;;;;;;;1.60;1.10;;;10.00;98.20;;;;;;4987714;28;20472;-93
2023/01/11 04:32:02;;;;;;;1.60;1.13;;;10.10;98.20;;;;;;4980512;28;21073;-92
2023/01/11 04:34:29;;;;;;;1.60;1.10;;;10.10;98.20;;;;;;4991835;28;20460;-90
2023/01/11 04:36:56;;;;;;;1.60;1.20;;;10.10;98.20;;;;;;4979621;28;20524;-92
2023/01/11 04:39:25;;;;;;;1.60;1.20;;;10.10;98.20;;;;;;4985520;28;20465;-93
2023/01/11 04:44:36;;;;;;;1.60;1.20;;;10.20;98.20;;;;;;4990187;28;20843;-92
2023/01/11 04:47:03;;;;;;;1.60;1.23;;;10.20;98.20;;;;;;4979677;28;20508;-93
2023/01/11 04:49:29;;;;;;;1.60;1.20;;;10.20;98.20;;;;;;4992684;28;20468;-92
2023/01/11 04:51:56;;;;;;;1.60;1.10;;;10.20;98.20;;;;;;4980178;28;20496;-92
2023/01/11 04:54:24;;;;;;;1.60;1.17;;;10.20;98.20;;;;;;4991603;28;20469;-92
2023/01/11 04:56:53;;;;;;;1.67;1.30;;;10.20;98.20;;;;;;4987483;28;20488;-92
2023/01/11 04:59:20;;;;;;;1.60;1.20;;;10.20;98.20;;;;;;4990655;28;20472;-91
2023/01/11 05:01:47;;;;;;;1.60;1.10;;;10.20;98.20;;;;;;4983080;28;20481;-91
2023/01/11 05:04:14;;;;;;;1.63;1.30;;;10.20;98.20;;;;;;4990551;28;20547;-91
2023/01/11 05:06:40;;;;;;;1.60;1.10;;;10.30;98.20;;;;;;4987785;28;20484;-92
2023/01/11 05:09:12;;;;;;;1.60;1.20;;;10.30;98.20;;;;;;4983754;28;20468;-92
2023/01/11 05:11:41;;;;;;;1.60;1.10;;;10.30;98.20;;;;;;4975059;28;20498;-91
2023/01/11 05:14:08;;;;;;;1.60;1.20;;;10.30;98.20;;;;;;4988466;28;20463;-92
2023/01/11 05:16:35;;;;;;;1.63;1.20;;;10.30;98.20;;;;;;4983580;28;20572;-91
2023/01/11 05:19:03;;;;;;;1.60;1.20;;;10.30;98.20;;;;;;4998890;28;20461;-92
2023/01/11 05:21:31;;;;;;;1.60;1.20;;;10.30;98.20;;;;;;4984652;28;20940;-92
2023/01/11 05:23:58;;;;;;;1.60;1.10;;;10.30;98.20;;;;;;4990314;28;21042;-92
2023/01/11 05:26:30;;;;;;;1.60;1.10;;;10.30;98.20;;;;;;4978917;28;20488;-92
2023/01/11 05:29:00;;;;;;;1.60;1.20;;;10.30;98.20;;;;;;4988863;28;20476;-90
2023/01/11 05:31:28;;;;;;;1.60;1.10;;;10.40;98.20;;;;;;4987531;28;20481;-90
2023/01/11 05:33:56;;;;;;;1.60;1.10;;;10.40;98.20;;;;;;4993178;28;20457;-90
2023/01/11 05:36:24;;;;;;;1.60;1.20;;;10.40;98.20;;;;;;4981543;28;20481;-89
2023/01/11 05:38:53;;;;;;;1.60;1.10;;;10.40;98.20;;;;;;4998603;28;20465;-89
2023/01/11 05:41:21;;;;;;;1.60;1.20;;;10.40;98.20;;;;;;4980443;28;20484;-89
2023/01/11 05:46:38;;;;;;;1.60;1.10;;;10.50;98.20;;;;;;4980260;28;21239;-89
2023/01/11 05:49:05;;;;;;;1.60;1.20;;;10.50;98.20;;;;;;4982976;28;20476;-89
2023/01/11 05:51:33;;;;;;;1.60;1.20;;;10.50;98.20;;;;;;4974672;28;20528;-90
2023/01/11 05:54:01;;;;;;;1.60;1.10;;;10.50;98.20;;;;;;4989980;28;20472;-90
2023/01/11 05:56:28;;;;;;;1.60;1.20;;;10.50;98.20;;;;;;4977187;28;21414;-91
2023/01/11 05:58:55;;;;;;;1.60;1.10;;;10.50;98.20;;;;;;4992214;28;20473;-91
2023/01/11 06:01:23;;;;;;;1.60;1.10;;;10.50;98.20;;;;;;4980735;28;20469;-92
2023/01/11 06:03:52;;;;;;;1.60;1.10;;;10.50;98.20;;;;;;4988327;28;20480;-91
2023/01/11 06:06:20;;;;;;;1.60;1.10;;;10.50;98.20;;;;;;4979650;28;20475;-91
2023/01/11 06:08:47;;;;;;;1.60;1.10;;;10.50;98.20;;;;;;4990733;28;20551;-90
2023/01/11 06:11:14;;;;;;;1.60;1.10;;;10.50;98.20;;;;;;4975107;28;20508;-90
2023/01/11 06:13:42;;;;;;;1.60;1.17;;;10.60;98.20;;;;;;4995162;28;20461;-90
2023/01/11 06:16:12;;;;;;;1.60;1.10;;;10.50;98.20;;;;;;4988121;28;20522;-90
2023/01/11 06:18:40;;;;;;;1.60;1.10;;;10.60;98.20;;;;;;4995202;28;20463;-92
2023/01/11 06:21:09;;;;;;;1.60;1.10;;;10.60;98.20;;;;;;4988556;28;20616;-92
2023/01/11 06:23:38;;;;;;;1.63;1.17;;;10.60;98.20;;;;;;4997210;28;20492;-92
2023/01/11 06:26:06;;;;;;;1.60;1.10;;;10.60;98.20;;;;;;4989238;28;20476;-90
2023/01/11 06:28:35;;;;;;;1.60;1.10;;;10.60;98.20;;;;;;4998878;28;20461;-91
2023/01/11 06:31:03;;;;;;;1.60;1.20;;;10.60;98.20;;;;;;4982919;28;20461;-92
2023/01/11 06:33:30;;;;;;;1.60;1.10;;;10.60;98.20;;;;;;4983631;28;20486;-91
2023/01/11 06:35:57;;;;;;;1.60;1.20;;;10.60;98.20;;;;;;4983618;28;20490;-91
2023/01/11 06:38:26;;;;;;;1.60;1.10;;;10.60;98.20;;;;;;4998279;28;20465;-91
2023/01/11 06:40:55;;;;;;;1.60;1.10;;;10.60;98.20;;;;;;5002102;28;20452;-91
2023/01/11 06:43:22;;;;;;;1.60;1.20;;;10.60;98.20;;;;;;4995470;28;20504;-89
2023/01/11 06:45:49;;;;;;;1.60;1.10;;;10.60;98.20;;;;;;4981663;28;20471;-91
2023/01/11 06:48:17;;;;;;;1.60;1.10;;;10.60;98.20;;;;;;4992050;28;20681;-93
2023/01/11 06:50:44;;;;;;;1.60;1.10;;;10.60;98.20;;;;;;4998170;28;20532;-90
2023/01/11 06:53:10;;;;;;;1.60;1.10;;;10.60;98.20;;;;;;4988777;28;20472;-92
2023/01/11 06:55:39;;;;;;;1.60;1.10;;;10.70;98.20;;;;;;4994278;28;20464;-92
2023/01/11 06:58:05;;;;;;;1.60;1.20;;;10.70;98.20;;;;;;4989291;28;20472;-92
2023/01/11 07:00:32;;;;;;;1.60;1.10;;;10.70;98.20;;;;;;5000492;28;20533;-91
2023/01/11 07:03:03;;;;;;;1.60;1.17;;;10.70;98.20;;;;;;4986421;28;20543;-92
2023/01/11 07:05:30;;;;;;;1.60;1.10;;;10.70;98.20;;;;;;4997596;28;20468;-92
2023/01/11 07:07:56;;;;;;;1.60;1.00;;;10.70;98.20;;;;;;4978788;28;20505;-91
2023/01/11 07:10:23;;;;;;;1.60;1.10;;;10.70;98.20;;;;;;4993654;28;20465;-90
2023/01/11 07:12:55;;;;;;;1.60;1.10;;;10.80;98.20;;;;;;4989619;28;20606;-92
2023/01/11 07:15:22;;;;;;;1.60;1.10;;;10.90;98.20;;;;;;4987680;28;20573;-90
2023/01/11 07:17:54;;;;;;;1.60;1.10;;;10.90;98.20;;;;;;4988240;28;20490;-91
2023/01/11 07:20:20;;;;;;;1.63;1.20;;;11.00;98.20;;;;;;4993261;28;20467;-91
2023/01/11 07:22:47;;;;;;;1.60;1.10;;;11.00;98.20;;;;;;4981431;28;20489;-91
2023/01/11 07:25:14;;;;;;;1.60;1.10;;;11.00;98.20;;;;;;4990539;28;20500;-91
2023/01/11 07:27:41;;;;;;;1.60;1.10;;;11.10;98.20;;;;;;4983898;28;20504;-92
2023/01/11 07:30:11;;;;;;;1.60;1.10;;;11.10;98.20;;;;;;4989950;28;20465;-91
2023/01/11 07:32:38;;;;;;;1.60;1.20;;;11.10;98.20;;;;;;4979514;28;20495;-92
2023/01/11 07:35:05;;;;;;;1.60;1.10;;;11.10;98.20;;;;;;4989039;28;20983;-91
2023/01/11 07:37:33;;;;;;;1.60;1.10;;;11.20;98.20;;;;;;4984184;28;20492;-90
2023/01/11 07:39:59;;;;;;;1.60;1.10;;;11.20;98.20;;;;;;4986777;28;20556;-89
2023/01/11 07:45:11;;;;;;;1.60;1.10;;;11.20;98.20;;;;;;4959367;28;20464;-90
2023/01/11 07:47:38;;;;;;;1.60;1.10;;;11.20;98.20;;;;;;4974870;28;20485;-91
2023/01/11 07:50:06;;;;;;;1.60;1.10;;;11.20;98.20;;;;;;4991168;28;21013;-90
2023/01/11 07:52:33;;;;;;;1.70;1.23;;;11.20;98.20;;;;;;4973134;28;20485;-90
2023/01/11 07:55:01;;;;;;;1.60;1.13;;;11.20;98.20;;;;;;5007110;28;20449;-88
2023/01/11 07:57:28;;;;;;;1.60;1.10;;;11.20;98.20;;;;;;4996212;28;20477;-91
2023/01/11 07:59:55;;;;;;;1.60;1.13;;;11.20;98.20;;;;;;5010737;28;20472;-90
2023/01/11 08:02:23;;;;;;;1.60;1.10;;;11.20;98.20;;;;;;4989435;28;20473;-90
2023/01/11 08:04:50;;;;;;;1.60;1.10;;;11.20;98.20;;;;;;4994469;28;20461;-91
2023/01/11 08:07:27;;;;;;;1.60;1.10;;;11.20;98.20;;;;;;4995014;28;20545;-91
2023/01/11 08:09:54;;;;;;;1.60;1.03;;;11.20;98.20;;;;;;4996046;28;21013;-90
2023/01/11 08:15:09;;;;;;;1.60;1.00;;;11.20;98.20;;;;;;4996299;28;20452;-91
2023/01/11 08:17:37;;;;;;;1.60;1.10;;;11.20;98.20;;;;;;4975442;28;20477;-91
2023/01/11 08:20:04;;;;;;;1.60;1.20;;;11.20;98.20;;;;;;4991457;28;20473;-90
2023/01/11 08:22:31;;;;;;;1.60;1.10;;;11.20;98.20;;;;;;4980692;28;20480;-90
2023/01/11 08:24:58;;;;;;;1.60;1.10;;;11.20;98.20;;;;;;4992093;28;20465;-91
2023/01/11 08:27:25;;;;;;;1.60;1.20;;;11.20;98.20;;;;;;4978641;28;20499;-91
2023/01/11 08:29:51;;;;;;;1.60;1.20;;;11.20;98.20;;;;;;4992587;28;20469;-91
2023/01/11 08:32:18;;;;;;;1.60;1.10;;;11.20;98.20;;;;;;4981417;28;20523;-91
2023/01/11 08:34:46;;;;;;;1.60;1.10;;;11.20;98.20;;;;;;4983504;28;20464;-90
2023/01/11 08:37:13;;;;;;;1.60;1.20;;;11.20;98.20;;;;;;5011565;23;20532;-75
2023/01/11 08:39:40;;;;;;;1.60;1.27;;;11.20;98.20;;;;;;4993403;28;20477;-75
2023/01/11 08:42:07;;;;;;;1.60;1.10;;;11.20;98.20;;;;;;4987704;28;21270;-77
2023/01/11 08:44:34;;;;;;;1.60;1.20;;;11.20;98.20;;;;;;4994059;28;20465;-79
2023/01/11 08:47:01;;;;;;;1.60;1.30;;;11.20;98.20;;;;;;4988164;28;20490;-75
2023/01/11 08:49:29;;;;;;;1.60;1.20;;;11.20;98.20;;;;;;4996344;28;20468;-74
2023/01/11 08:51:57;;;;;;;1.60;1.10;;;11.20;98.20;;;;;;4987028;28;20480;-74
2023/01/11 08:54:24;;;;;;;1.60;1.10;;;11.20;98.20;;;;;;4994029;28;20467;-74
2023/01/11 08:56:51;;;;;;;1.60;1.17;;;11.20;98.20;;;;;;4986011;28;20480;-78
2023/01/11 08:59:20;;;;;;;1.60;1.20;;;11.20;98.20;;;;;;4997182;28;20552;-75
2023/01/11 09:01:47;;;;;;;1.60;1.20;;;11.20;98.20;;;;;;4985133;28;20938;-75
2023/01/11 09:04:14;;;;;;;1.60;1.10;;;11.20;98.20;;;;;;4992532;28;20536;-74
2023/01/11 09:06:41;;;;;;;1.60;1.10;;;11.20;98.20;;;;;;4981640;28;20480;-75
2023/01/11 09:09:09;;;;;;;1.60;1.00;;;11.20;98.20;;;;;;4996978;28;20464;-73
2023/01/11 09:11:55;;;;;;;1.60;1.10;;;11.20;98.20;;;;;;4984117;28;20476;-75
2023/01/11 09:14:23;;;;;;;1.60;1.10;;;11.20;98.20;;;;;;4991551;28;20531;-75
2023/01/11 09:16:50;;;;;;;1.60;1.10;;;11.20;98.20;;;;;;4983329;28;20484;-75
2023/01/11 09:19:17;;;;;;;1.60;1.20;;;11.20;98.20;;;;;;4994938;28;20472;-75
2023/01/11 09:21:44;;;;;;;1.60;1.10;;;11.20;98.20;;;;;;4986013;28;21236;-75
2023/01/11 09:24:12;;;;;;;1.60;1.10;;;11.20;98.20;;;;;;4996585;28;20508;-75
2023/01/11 09:26:40;;;;;;;1.60;1.20;;;11.20;98.20;;;;;;4984835;28;20903;-73
2023/01/11 09:29:07;;;;;;;1.60;1.10;;;11.20;98.20;;;;;;4995313;28;20496;-75
2023/01/11 09:31:33;;;;;;;1.60;1.10;;;11.20;98.20;;;;;;4983695;28;20479;-72
2023/01/11 09:34:00;;;;;;;1.60;1.10;;;11.20;98.20;;;;;;4996682;28;20469;-73
2023/01/11 09:36:27;;;;;;;1.60;1.00;;;11.20;98.20;;;;;;4980231;28;21171;-73
2023/01/11 09:38:56;;;;;;;1.60;1.10;;;11.20;98.20;;;;;;4996528;28;20460;-75
2023/01/11 09:41:45;;;;;;;1.60;1.20;;;11.10;98.20;;;;;;4983018;28;20486;-75
2023/01/11 09:44:17;;;;;;;1.60;1.03;;;11.10;98.20;;;;;;4994859;28;20491;-73
2023/01/11 09:46:49;;;;;;;1.60;1.10;;;11.00;98.20;;;;;;4983343;28;21056;-75
2023/01/11 09:49:19;;;;;;;1.60;1.10;;;11.00;98.20;;;;;;4992039;28;20473;-75
2023/01/11 09:51:48;;;;;;;1.60;1.10;;;11.00;98.20;;;;;;4983967;28;21028;-75
2023/01/11 09:54:18;;;;;;;1.60;1.10;;;10.90;98.20;;;;;;4993607;28;20935;-77
2023/01/11 09:56:56;;;;;;;1.60;1.20;;;10.90;98.20;;;;;;4983974;28;20476;-75
2023/01/11 09:59:33;;;;;;;1.60;1.10;;;10.90;98.20;;;;;;4993712;28;20563;-73
2023/01/11 10:02:09;;;;;;;1.60;1.20;;;10.80;98.20;;;;;;4984649;28;20523;-74
2023/01/11 10:04:55;;;;;;;1.60;1.10;;;10.80;98.20;;;;;;4992905;28;20859;-75
2023/01/11 10:07:45;;;;;;;1.60;1.17;;;10.80;98.20;;;;;;4989516;28;20492;-75
2023/01/11 10:10:27;;;;;;;1.60;1.10;;;10.70;98.20;;;;;;4988746;28;20902;-78
2023/01/11 10:13:05;;;;;;;1.60;1.03;;;10.70;98.20;;;;;;4991913;28;20559;-74
2023/01/11 10:15:37;;;;;;;1.60;1.10;;;10.70;98.20;;;;;;4983277;28;21017;-74
2023/01/11 10:18:29;;;;;;;1.60;1.17;;;10.70;98.20;;;;;;4990962;28;20483;-74
2023/01/11 10:21:05;;;;;;;1.60;1.10;;;10.70;98.20;;;;;;4976353;28;21218;-74
2023/01/11 10:23:40;;;;;;;1.60;1.10;;;10.70;98.20;;;;;;4999599;28;20769;-74
2023/01/11 10:26:22;;;;;;;1.60;1.20;;;10.70;98.20;;;;;;4977539;28;20546;-74
2023/01/11 10:29:08;;;;;;;1.60;1.10;;;10.70;98.20;;;;;;4995288;28;20457;-76
2023/01/11 10:31:48;;;;;;;1.60;1.10;;;10.80;98.20;;;;;;4985522;28;20480;-76
2023/01/11 10:34:40;;;;;;;1.60;1.10;;;10.80;98.20;;;;;;4992498;28;20556;-74
2023/01/11 10:37:26;;;;;;;1.60;1.20;;;10.80;98.20;;;;;;4983859;28;20507;-75
2023/01/11 10:40:18;;;;;;;1.60;1.10;;;10.80;98.20;;;;;;4986831;28;20553;-75
2023/01/11 10:42:51;;;;;;;1.60;1.20;;;10.90;98.20;;;;;;4993363;28;20480;-75
2023/01/11 10:45:24;;;;;;;1.60;1.10;;;11.00;98.20;;;;;;4984081;28;20599;-75
2023/01/11 10:47:57;;;;;;;1.60;1.07;;;11.00;98.20;;;;;;4985972;28;20480;-75
2023/01/11 10:50:28;;;;;;;1.70;1.30;;;11.10;98.20;;;;;;4985593;28;20986;-77
2023/01/11 10:53:01;;;;;;;1.60;1.10;;;11.10;98.20;;;;;;4993009;28;20573;-75
2023/01/11 10:55:38;;;;;;;1.67;1.20;;;11.10;98.20;;;;;;4987586;28;20465;-74
2023/01/11 10:58:11;;;;;;;1.60;1.00;;;11.20;98.20;;;;;;4990566;28;20846;-76
2023/01/11 11:00:50;;;;;;;1.60;1.10;;;11.20;98.20;;;;;;4986265;28;20469;-73
2023/01/11 11:03:48;;;;;;;1.67;1.20;;;11.10;98.20;;;;;;4973863;28;20485;-75
2023/01/11 11:06:25;;;;;;;1.60;1.00;;;11.10;98.20;;;;;;4977894;28;20890;-72
2023/01/11 11:08:58;;;;;;;1.60;1.10;;;11.10;98.20;;;;;;4996325;28;20463;-75
2023/01/11 11:11:31;;;;;;;1.60;1.10;;;11.10;98.20;;;;;;4980663;28;20491;-76
2023/01/11 11:14:03;;;;;;;1.60;1.10;;;11.20;98.20;;;;;;4994421;28;20465;-75
2023/01/11 11:16:45;;;;;;;1.60;1.17;;;11.10;98.20;;;;;;4979410;28;20484;-75
2023/01/11 11:19:17;;;;;;;1.60;1.10;;;11.10;98.20;;;;;;4991787;28;20449;-75
2023/01/11 11:21:44;;;;;;;1.60;1.10;;;11.10;98.20;;;;;;4980702;28;20918;-73
2023/01/11 11:24:19;;;;;;;1.60;1.10;;;11.10;98.20;;;;;;4992232;28;20456;-73
2023/01/11 11:26:51;;;;;;;2.87;2.33;;;11.00;98.20;;;;;;4983950;28;20834;-73
2023/01/11 11:29:27;;;;;;;1.60;1.10;;;11.00;98.20;;;;;;4990205;28;20475;-75
2023/01/11 11:31:58;;;;;;;1.60;1.10;;;11.00;98.20;;;;;;4982229;28;20483;-74
2023/01/11 11:34:26;;;;;;;1.60;1.10;;;11.00;98.20;;;;;;4991938;28;20876;-74
2023/01/11 11:36:54;;;;;;;1.60;1.00;;;11.00;98.20;;;;;;4982272;28;20559;-74
2023/01/11 11:39:26;;;;;;;1.60;1.10;;;10.90;98.20;;;;;;4992056;28;20472;-77
2023/01/11 11:41:56;;;;;;;1.60;1.10;;;10.90;98.20;;;;;;4987549;28;20515;-74
2023/01/11 11:44:24;;;;;;;1.60;1.10;;;10.80;98.20;;;;;;4994629;28;20456;-76
2023/01/11 11:47:00;;;;;;;1.60;1.13;;;10.80;98.20;;;;;;4987610;28;20690;-75
2023/01/11 11:49:28;;;;;;;1.60;1.10;;;10.70;98.20;;;;;;4995745;28;20942;-76
2023/01/11 11:51:56;;;;;;;1.60;1.20;;;10.70;98.20;;;;;;4987530;28;20495;-75
2023/01/11 11:54:28;;;;;;;1.60;1.10;;;10.80;98.20;;;;;;4994822;28;20476;-75
2023/01/11 11:56:57;;;;;;;1.60;1.00;;;10.80;98.20;;;;;;4990135;28;20592;-75
2023/01/11 11:59:28;;;;;;;1.60;1.13;;;10.80;98.20;;;;;;4997843;28;20532;-73
2023/01/11 12:02:00;;;;;;;1.60;1.10;;;10.80;98.20;;;;;;4989076;28;20479;-73
2023/01/11 12:04:39;;;;;;;1.60;1.20;;;10.80;98.20;;;;;;4994839;28;20546;-75
2023/01/11 12:07:13;;;;;;;1.60;1.00;;;10.90;98.20;;;;;;4985180;28;20495;-73
2023/01/11 12:09:44;;;;;;;1.60;1.07;;;10.90;98.20;;;;;;4988939;28;20463;-73
2023/01/11 12:12:17;;;;;;;1.60;1.10;;;10.90;98.20;;;;;;4989656;28;20924;-73
2023/01/11 12:15:04;;;;;;;1.60;1.10;;;10.90;98.20;;;;;;4991912;28;20464;-75
2023/01/11 12:17:32;;;;;;;1.60;1.10;;;11.00;98.20;;;;;;4992912;28;20802;-76
2023/01/11 12:19:59;;;;;;;1.60;1.10;;;11.00;98.20;;;;;;4991400;28;20484;-76
2023/01/11 12:22:27;;;;;;;1.70;1.60;;;11.00;98.20;;;;;;4992329;28;20479;-75
2023/01/11 12:25:06;;;;;;;1.60;1.20;;;11.00;98.20;;;;;;4990135;28;20811;-76
2023/01/11 12:27:42;;;;;;;1.60;1.10;;;10.90;98.20;;;;;;4993069;28;20981;-73
2023/01/11 12:30:25;;;;;;;1.60;1.10;;;10.80;98.20;;;;;;4991554;28;20461;-74
2023/01/11 12:33:26;;;;;;;1.70;1.40;;;10.70;98.20;;;;;;4990846;28;21017;-74
2023/01/11 12:36:00;;;;;;;1.60;1.10;;;10.70;98.20;;;;;;4979271;28;20472;-74
2023/01/11 12:38:37;;;;;;;1.60;1.13;;;10.70;98.20;;;;;;5000062;28;20493;-73
2023/01/11 12:41:19;;;;;;;1.60;1.10;;;10.70;98.20;;;;;;4980585;28;20483;-73
2023/01/11 12:44:01;;;;;;;1.60;1.20;;;10.70;98.20;;;;;;4998164;28;20456;-73
2023/01/11 12:46:47;;;;;;;1.60;1.10;;;10.70;98.20;;;;;;4978032;28;21092;-73
2023/01/11 12:49:26;;;;;;;1.60;1.10;;;10.80;98.20;;;;;;4992422;28;20529;-73
2023/01/11 12:52:23;;;;;;;1.60;1.20;;;10.90;98.20;;;;;;4985347;28;21044;-73
2023/01/11 12:55:06;;;;;;;1.60;1.10;;;11.00;98.20;;;;;;4986610;28;20476;-73
2023/01/11 12:57:41;;;;;;;1.60;1.10;;;11.10;98.20;;;;;;4988379;28;21082;-74
2023/01/11 13:00:23;;;;;;;1.60;1.10;;;11.20;98.20;;;;;;4990336;28;20981;-73
2023/01/11 13:03:08;;;;;;;1.60;1.20;;;11.30;98.20;;;;;;4992277;28;20472;-74
2023/01/11 13:05:47;;;;;;;1.60;1.10;;;11.40;98.20;;;;;;4987578;28;20476;-73
2023/01/11 13:08:22;;;;;;;1.60;1.10;;;11.40;98.20;;;;;;4975171;28;20469;-73
2023/01/11 13:10:59;;;;;;;1.60;1.10;;;11.30;98.20;;;;;;4977210;28;20520;-74
2023/01/11 13:13:34;;;;;;;1.60;1.10;;;11.30;98.20;;;;;;4999911;28;20460;-74
2023/01/11 13:16:06;;;;;;;1.60;1.10;;;11.30;98.20;;;;;;4980268;28;20953;-73
2023/01/11 13:18:42;;;;;;;1.60;1.07;;;11.20;98.20;;;;;;4997613;28;20492;-74
2023/01/11 13:21:18;;;;;;;1.60;1.10;;;11.30;98.20;;;;;;4976552;28;20494;-73
2023/01/11 13:23:49;;;;;;;1.60;1.10;;;11.20;98.20;;;;;;4991879;28;20486;-75
2023/01/11 13:26:23;;;;;;;1.60;1.10;;;11.20;98.20;;;;;;4974226;28;20502;-74
2023/01/11 13:28:54;;;;;;;1.60;1.00;;;11.10;98.20;;;;;;4991131;28;20464;-74
2023/01/11 13:31:22;;;;;;;1.60;1.10;;;11.10;98.20;;;;;;4978549;28;20483;-73
2023/01/11 13:33:54;;;;;;;1.60;1.03;;;11.00;98.20;;;;;;4996101;28;20468;-73
2023/01/11 13:36:29;;;;;;;1.60;1.00;;;10.90;98.20;;;;;;4979265;28;20488;-76